createdAt,value
2023-04-17T00:02:13.641Z,53.76
2023-04-17T00:04:42.235Z,53.86
2023-04-17T00:07:09.958Z,54.26
2023-04-17T00:09:38.249Z,54.33
2023-04-17T00:12:05.816Z,54.45
2023-04-17T00:14:33.051Z,54.58
2023-04-17T00:17:00.082Z,54.70
2023-04-17T00:19:27.322Z,54.58
2023-04-17T00:21:54.499Z,54.50
2023-04-17T00:24:21.456Z,54.70
2023-04-17T00:26:48.672Z,54.44
2023-04-17T00:29:15.820Z,54.51
2023-04-17T00:31:43.755Z,55.01
2023-04-17T00:34:11.148Z,54.95
2023-04-17T00:36:38.487Z,55.16
2023-04-17T00:39:05.781Z,55.36
2023-04-17T00:41:33.309Z,55.29
2023-04-17T00:44:00.497Z,55.12
2023-04-17T00:46:27.525Z,54.94
2023-04-17T00:48:54.965Z,55.05
2023-04-17T00:51:22.433Z,55.20
2023-04-17T00:53:49.495Z,55.15
2023-04-17T00:56:16.930Z,55.03
2023-04-17T00:58:44.076Z,55.31
2023-04-17T01:01:11.276Z,55.73
2023-04-17T01:03:38.901Z,56.61
2023-04-17T01:06:06.381Z,57.09
2023-04-17T01:08:41.066Z,57.46
2023-04-17T01:11:09.056Z,57.25
2023-04-17T01:13:56.674Z,57.67
2023-04-17T01:16:24.074Z,58.43
2023-04-17T01:18:51.500Z,59.11
2023-04-17T01:21:18.942Z,59.88
2023-04-17T01:23:53.269Z,60.36
2023-04-17T01:26:23.698Z,61.17
2023-04-17T01:28:54.936Z,61.68
2023-04-17T01:31:22.384Z,62.39
2023-04-17T01:33:50.171Z,62.89
2023-04-17T01:36:17.468Z,63.58
2023-04-17T01:38:44.656Z,63.91
2023-04-17T01:41:12.220Z,64.43
2023-04-17T01:43:43.861Z,64.63
2023-04-17T01:46:11.670Z,64.80
2023-04-17T01:48:39.399Z,65.06
2023-04-17T01:51:06.551Z,65.21
2023-04-17T01:53:34.744Z,65.57
2023-04-17T01:56:02.277Z,66.00
2023-04-17T01:58:30.541Z,66.37
2023-04-17T02:00:57.727Z,66.54
2023-04-17T02:03:25.147Z,66.68
2023-04-17T02:05:55.020Z,66.81
2023-04-17T02:08:22.421Z,66.77
2023-04-17T02:10:49.896Z,67.00
2023-04-17T02:13:17.334Z,67.00
2023-04-17T02:15:44.420Z,66.92
2023-04-17T02:18:13.269Z,66.96
2023-04-17T02:20:40.551Z,66.79
2023-04-17T02:23:08.083Z,66.82
2023-04-17T02:25:35.648Z,66.78
2023-04-17T02:28:03.820Z,66.62
2023-04-17T02:30:31.320Z,66.54
2023-04-17T02:32:58.787Z,66.59
2023-04-17T02:35:28.969Z,66.59
2023-04-17T02:37:56.632Z,66.45
2023-04-17T02:40:24.222Z,65.96
2023-04-17T02:42:56.128Z,65.67
2023-04-17T02:45:23.291Z,65.63
2023-04-17T02:47:50.826Z,65.26
2023-04-17T02:50:18.522Z,64.22
2023-04-17T02:53:14.855Z,63.84
2023-04-17T02:55:42.673Z,63.62
2023-04-17T02:58:09.762Z,63.54
2023-04-17T03:00:37.048Z,63.45
2023-04-17T03:03:05.112Z,63.54
2023-04-17T03:05:32.464Z,63.44
2023-04-17T03:08:00.608Z,63.72
2023-04-17T03:10:31.582Z,63.97
2023-04-17T03:12:58.808Z,64.29
2023-04-17T03:15:26.147Z,64.05
2023-04-17T03:17:53.859Z,64.10
2023-04-17T03:20:21.775Z,64.02
2023-04-17T03:22:48.951Z,63.91
2023-04-17T03:25:16.085Z,64.18
2023-04-17T03:27:47.669Z,63.99
2023-04-17T03:30:15.129Z,63.83
2023-04-17T03:32:46.299Z,63.86
2023-04-17T03:35:13.391Z,63.79
2023-04-17T03:37:41.302Z,63.37
2023-04-17T03:40:09.112Z,63.43
2023-04-17T03:42:36.327Z,63.19
2023-04-17T03:45:04.984Z,63.35
2023-04-17T03:47:33.082Z,63.32
2023-04-17T03:50:00.631Z,63.12
2023-04-17T03:52:29.469Z,62.57
2023-04-17T03:54:58.458Z,61.22
2023-04-17T03:57:26.630Z,60.52
2023-04-17T03:59:54.193Z,59.69
2023-04-17T04:02:23.427Z,59.46
2023-04-17T04:04:51.702Z,59.00
2023-04-17T04:07:19.125Z,58.46
2023-04-17T04:09:46.507Z,57.92
2023-04-17T04:12:14.071Z,57.37
2023-04-17T04:14:42.961Z,56.58
2023-04-17T04:17:10.797Z,55.79
2023-04-17T04:19:38.656Z,55.77
2023-04-17T04:22:06.986Z,55.09
2023-04-17T04:24:42.952Z,54.37
2023-04-17T04:27:13.107Z,54.08
2023-04-17T04:29:45.998Z,54.07
2023-04-17T04:32:15.962Z,53.79
2023-04-17T04:34:45.760Z,53.53
2023-04-17T04:37:16.341Z,53.14
2023-04-17T04:39:47.433Z,53.15
2023-04-17T04:42:22.302Z,52.98
2023-04-17T04:45:06.268Z,51.88
2023-04-17T04:47:33.877Z,51.80
2023-04-17T04:50:01.298Z,51.40
2023-04-17T04:52:28.425Z,51.05
2023-04-17T04:54:58.242Z,50.98
2023-04-17T04:57:27.242Z,50.83
2023-04-17T04:59:56.558Z,50.23
2023-04-17T05:02:31.310Z,49.24
2023-04-17T05:05:00.554Z,49.12
2023-04-17T05:07:28.335Z,48.47
2023-04-17T05:09:55.902Z,47.75
2023-04-17T05:12:24.094Z,47.51
2023-04-17T05:14:51.458Z,46.82
2023-04-17T05:17:19.490Z,46.31
2023-04-17T05:19:47.865Z,45.15
2023-04-17T05:22:16.146Z,45.29
2023-04-17T05:24:57.737Z,44.25
2023-04-17T05:27:27.154Z,44.52
2023-04-17T05:29:54.324Z,44.22
2023-04-17T05:32:21.781Z,44.14
2023-04-17T05:34:58.634Z,43.66
2023-04-17T05:37:27.205Z,42.69
2023-04-17T05:39:55.686Z,42.66
2023-04-17T05:42:23.341Z,41.60
2023-04-17T05:44:50.601Z,40.87
2023-04-17T05:47:18.463Z,38.30
2023-04-17T05:49:45.934Z,37.49
2023-04-17T05:52:13.865Z,36.83
2023-04-17T05:54:43.126Z,36.21
2023-04-17T05:57:10.736Z,35.86
2023-04-17T05:59:38.400Z,36.55
2023-04-17T06:02:07.873Z,35.12
2023-04-17T06:04:36.888Z,33.53
2023-04-17T06:07:06.333Z,33.82
2023-04-17T06:09:35.561Z,33.13
2023-04-17T06:12:03.984Z,32.52
2023-04-17T06:14:31.573Z,32.82
2023-04-17T06:16:58.966Z,32.11
2023-04-17T06:19:26.150Z,32.00
2023-04-17T06:21:53.633Z,32.26
2023-04-17T06:24:20.868Z,32.77
2023-04-17T06:26:48.245Z,32.90
2023-04-17T06:29:17.206Z,32.46
2023-04-17T06:31:44.942Z,32.36
2023-04-17T06:34:13.297Z,32.32
2023-04-17T06:36:43.243Z,32.52
2023-04-17T06:39:11.073Z,32.25
2023-04-17T06:41:38.566Z,31.75
2023-04-17T06:44:06.529Z,31.36
2023-04-17T06:46:52.863Z,30.62
2023-04-17T06:49:19.954Z,30.59
2023-04-17T06:51:47.519Z,30.21
2023-04-17T06:54:14.616Z,30.11
2023-04-17T06:56:41.811Z,29.09
2023-04-17T06:59:09.570Z,28.04
2023-04-17T07:01:38.203Z,27.62
2023-04-17T07:04:06.175Z,28.14
2023-04-17T07:06:34.711Z,28.09
2023-04-17T07:09:02.094Z,27.53
2023-04-17T07:11:29.486Z,27.21
2023-04-17T07:13:56.387Z,27.31
2023-04-17T07:16:23.437Z,26.78
2023-04-17T07:18:51.079Z,25.84
2023-04-17T07:21:18.766Z,25.08
2023-04-17T07:23:45.885Z,25.79
2023-04-17T07:26:12.819Z,26.15
2023-04-17T07:28:40.005Z,25.53
2023-04-17T07:31:08.820Z,25.95
2023-04-17T07:33:38.916Z,26.06
2023-04-17T07:36:09.306Z,25.84
2023-04-17T07:38:37.602Z,25.79
2023-04-17T07:41:06.656Z,26.12
2023-04-17T07:43:33.754Z,25.99
2023-04-17T07:46:00.773Z,25.98
2023-04-17T07:48:27.802Z,26.24
2023-04-17T07:50:54.918Z,25.49
2023-04-17T07:53:22.279Z,25.45
2023-04-17T07:55:49.286Z,25.50
2023-04-17T07:58:16.639Z,25.93
2023-04-17T08:00:43.602Z,25.16
2023-04-17T08:03:11.072Z,24.53
2023-04-17T08:05:40.390Z,24.11
2023-04-17T08:08:07.783Z,24.46
2023-04-17T08:10:34.839Z,24.63
2023-04-17T08:13:02.225Z,23.94
2023-04-17T08:15:29.378Z,23.53
2023-04-17T08:17:57.945Z,22.87
2023-04-17T08:20:25.074Z,23.06
2023-04-17T08:22:52.230Z,23.53
2023-04-17T08:25:19.325Z,23.39
2023-04-17T08:27:46.298Z,23.27
2023-04-17T08:30:15.057Z,23.57
2023-04-17T08:32:46.146Z,23.80
2023-04-17T08:35:14.333Z,23.92
2023-04-17T08:37:42.194Z,24.67
2023-04-17T08:40:09.998Z,24.94
2023-04-17T08:42:37.547Z,24.37
2023-04-17T08:45:05.888Z,23.94
2023-04-17T08:47:34.742Z,24.01
2023-04-17T08:50:09.518Z,23.83
2023-04-17T08:52:54.757Z,24.18
2023-04-17T08:55:25.019Z,24.44
2023-04-17T08:57:58.876Z,24.77
2023-04-17T09:00:27.388Z,25.06
2023-04-17T09:02:55.612Z,25.62
2023-04-17T09:05:23.513Z,25.80
2023-04-17T09:07:51.893Z,25.25
2023-04-17T09:10:18.955Z,24.52
2023-04-17T09:12:59.426Z,24.78
2023-04-17T09:15:27.181Z,25.05
2023-04-17T09:17:54.297Z,24.70
2023-04-17T09:20:21.386Z,24.87
2023-04-17T09:22:48.426Z,25.08
2023-04-17T09:25:23.402Z,25.27
2023-04-17T09:27:50.457Z,25.26
2023-04-17T09:30:17.337Z,24.07
2023-04-17T09:32:44.593Z,24.50
2023-04-17T09:35:12.155Z,24.67
2023-04-17T09:37:51.336Z,24.80
2023-04-17T09:40:19.467Z,24.53
2023-04-17T09:43:00.539Z,24.82
2023-04-17T09:45:33.450Z,25.10
2023-04-17T09:48:01.200Z,25.01
2023-04-17T09:50:28.368Z,25.32
2023-04-17T09:52:56.197Z,25.38
2023-04-17T09:55:24.258Z,25.43
2023-04-17T09:57:55.870Z,24.92
2023-04-17T10:00:23.824Z,24.60
2023-04-17T10:02:54.250Z,24.66
2023-04-17T10:05:22.095Z,24.30
2023-04-17T10:07:49.025Z,23.75
2023-04-17T10:10:31.335Z,24.16
2023-04-17T10:13:00.362Z,24.48
2023-04-17T10:15:27.670Z,24.05
2023-04-17T10:17:56.538Z,24.11
2023-04-17T10:20:23.766Z,23.95
2023-04-17T10:22:56.264Z,23.95
2023-04-17T10:25:24.452Z,23.76
2023-04-17T10:27:53.551Z,23.50
2023-04-17T10:30:22.800Z,23.54
2023-04-17T10:33:21.994Z,23.82
2023-04-17T10:35:49.328Z,23.54
2023-04-17T10:38:17.597Z,23.46
2023-04-17T10:40:44.907Z,23.38
2023-04-17T10:43:20.623Z,22.92
2023-04-17T10:45:58.046Z,22.99
2023-04-17T10:48:39.061Z,22.81
2023-04-17T10:51:21.283Z,23.36
2023-04-17T10:53:49.249Z,23.23
2023-04-17T10:56:26.513Z,22.72
2023-04-17T10:59:04.389Z,22.29
2023-04-17T11:01:32.916Z,22.90
2023-04-17T11:04:00.305Z,23.11
2023-04-17T11:06:31.412Z,22.61
2023-04-17T11:08:59.359Z,21.98
2023-04-17T11:11:43.031Z,21.53
2023-04-17T11:19:41.502Z,22.41
2023-04-17T11:22:10.158Z,22.58
2023-04-17T11:24:37.717Z,22.14
2023-04-17T11:27:04.967Z,22.14
2023-04-17T11:29:32.154Z,22.00
2023-04-17T11:32:01.110Z,22.20
2023-04-17T11:34:28.915Z,22.16
2023-04-17T11:37:00.486Z,22.60
2023-04-17T11:39:32.138Z,22.75
2023-04-17T11:41:59.257Z,22.39
2023-04-17T11:44:26.599Z,22.25
2023-04-17T11:46:56.776Z,22.46
2023-04-17T11:49:28.284Z,23.20
2023-04-17T11:51:57.022Z,23.28
2023-04-17T11:54:30.972Z,22.40
2023-04-17T11:57:02.328Z,21.98
2023-04-17T11:59:30.067Z,22.00
2023-04-17T12:01:59.849Z,21.73
2023-04-17T12:04:29.250Z,21.63
2023-04-17T12:06:59.173Z,21.51
2023-04-17T12:09:31.841Z,21.53
2023-04-17T12:12:04.964Z,21.34
2023-04-17T12:14:33.450Z,21.42
2023-04-17T12:17:01.434Z,21.35
2023-04-17T12:19:30.019Z,21.67
2023-04-17T12:21:57.699Z,21.89
2023-04-17T12:24:25.447Z,21.86
2023-04-17T12:26:53.353Z,21.51
2023-04-17T12:29:29.481Z,20.27
2023-04-17T12:32:04.926Z,19.98
2023-04-17T12:34:32.344Z,20.59
2023-04-17T12:37:00.013Z,20.27
2023-04-17T12:39:27.366Z,20.62
2023-04-17T12:41:54.531Z,20.47
2023-04-17T12:44:21.724Z,20.12
2023-04-17T12:46:48.702Z,20.27
2023-04-17T12:49:16.133Z,20.18
2023-04-17T12:51:43.214Z,20.02
2023-04-17T12:54:11.043Z,20.25
2023-04-17T12:56:38.642Z,19.80
2023-04-17T12:59:05.705Z,19.88
2023-04-17T13:01:32.940Z,19.74
2023-04-17T13:04:00.189Z,20.06
2023-04-17T13:06:28.444Z,20.11
2023-04-17T13:08:55.716Z,20.06
2023-04-17T13:11:22.692Z,20.25
2023-04-17T13:13:49.560Z,20.32
2023-04-17T13:16:17.077Z,19.86
2023-04-17T13:18:44.495Z,20.01
2023-04-17T13:21:11.559Z,19.47
2023-04-17T13:23:38.693Z,19.29
2023-04-17T13:26:05.936Z,19.51
2023-04-17T13:28:34.107Z,19.99
2023-04-17T13:31:02.130Z,20.19
2023-04-17T13:33:29.263Z,20.04
2023-04-17T13:35:56.430Z,20.30
2023-04-17T13:38:23.721Z,20.34
2023-04-17T13:40:50.740Z,20.34
2023-04-17T13:43:18.163Z,20.52
2023-04-17T13:45:45.309Z,20.63
2023-04-17T13:48:12.535Z,20.88
2023-04-17T13:50:40.038Z,21.01
2023-04-17T13:53:08.939Z,21.12
2023-04-17T13:55:37.319Z,21.11
2023-04-17T13:58:04.684Z,21.12
2023-04-17T14:00:32.401Z,20.63
2023-04-17T14:03:01.063Z,20.37
2023-04-17T14:05:28.563Z,20.70
2023-04-17T14:07:56.138Z,21.00
2023-04-17T14:10:23.303Z,20.73
2023-04-17T14:12:50.517Z,20.98
2023-04-17T14:15:17.867Z,20.96
2023-04-17T14:17:45.261Z,21.27
2023-04-17T14:20:15.136Z,21.39
2023-04-17T14:22:42.654Z,21.60
2023-04-17T14:25:09.871Z,21.52
2023-04-17T14:27:37.215Z,21.95
2023-04-17T14:30:05.235Z,21.98
2023-04-17T14:32:33.163Z,22.06
2023-04-17T14:35:01.392Z,22.08
2023-04-17T14:37:28.598Z,22.06
2023-04-17T14:39:57.879Z,22.29
2023-04-17T14:50:28.578Z,23.12
2023-04-17T14:52:55.457Z,22.62
2023-04-17T14:55:23.185Z,22.87
2023-04-17T14:57:49.928Z,23.11
2023-04-17T15:00:16.893Z,23.41
2023-04-17T15:02:44.557Z,23.08
2023-04-17T15:05:11.388Z,22.99
2023-04-17T15:07:38.435Z,22.81
2023-04-17T15:10:05.694Z,22.70
2023-04-17T15:12:32.400Z,22.68
2023-04-17T15:14:58.895Z,22.68
2023-04-17T15:17:25.523Z,22.82
2023-04-17T15:19:54.447Z,23.04
2023-04-17T15:22:21.050Z,23.21
2023-04-17T15:24:47.741Z,23.04
2023-04-17T15:27:14.145Z,23.16
2023-04-17T15:29:40.906Z,22.98
2023-04-17T15:32:07.548Z,23.16
2023-04-17T15:34:34.675Z,23.45
2023-04-17T15:37:00.938Z,23.63
2023-04-17T15:39:27.262Z,23.68
2023-04-17T15:41:53.976Z,24.01
2023-04-17T15:44:20.227Z,24.19
2023-04-17T15:46:46.395Z,24.28
2023-04-17T15:49:12.942Z,24.39
2023-04-17T15:51:41.383Z,24.59
2023-04-17T15:54:08.294Z,24.88
2023-04-17T15:56:34.874Z,25.10
2023-04-17T15:59:01.594Z,25.28
2023-04-17T16:01:31.640Z,25.53
2023-04-17T16:03:59.635Z,25.49
2023-04-17T16:06:26.998Z,25.61
2023-04-17T16:08:53.618Z,25.75
2023-04-17T16:11:20.159Z,26.11
2023-04-17T16:13:46.438Z,26.04
2023-04-17T16:16:12.885Z,26.05
2023-04-17T16:18:39.308Z,26.10
2023-04-17T16:21:09.785Z,26.18
2023-04-17T16:23:38.376Z,26.11
2023-04-17T16:26:07.905Z,26.30
2023-04-17T16:28:34.818Z,26.40
2023-04-17T16:31:01.377Z,26.75
2023-04-17T16:33:27.971Z,26.56
2023-04-17T16:35:55.479Z,26.66
2023-04-17T16:38:21.924Z,26.86
2023-04-17T16:40:48.327Z,26.70
2023-04-17T16:43:14.734Z,26.92
2023-04-17T16:45:41.477Z,27.18
2023-04-17T16:48:08.549Z,27.51
2023-04-17T16:50:34.947Z,27.54
2023-04-17T16:53:01.605Z,27.67
2023-04-17T16:55:27.895Z,27.82
2023-04-17T16:57:55.017Z,27.95
2023-04-17T17:00:21.492Z,27.94
2023-04-17T17:02:48.021Z,28.07
2023-04-17T17:05:15.164Z,28.23
2023-04-17T17:07:42.764Z,28.37
2023-04-17T17:10:09.593Z,28.33
2023-04-17T17:12:36.266Z,28.45
2023-04-17T17:15:03.339Z,28.50
2023-04-17T17:17:30.375Z,28.51
2023-04-17T17:19:56.861Z,28.69
2023-04-17T17:22:23.105Z,28.79
2023-04-17T17:24:49.504Z,29.01
2023-04-17T17:27:15.810Z,28.90
2023-04-17T17:29:42.195Z,28.95
2023-04-17T17:32:08.772Z,29.13
2023-04-17T17:34:36.220Z,29.24
2023-04-17T17:37:03.269Z,29.23
2023-04-17T17:39:29.830Z,29.54
2023-04-17T17:41:56.679Z,29.63
2023-04-17T17:44:23.713Z,29.74
2023-04-17T17:46:50.154Z,29.90
2023-04-17T17:49:16.854Z,29.95
2023-04-17T17:51:43.805Z,30.19
2023-04-17T17:54:10.547Z,30.24
2023-04-17T17:56:37.798Z,30.36
2023-04-17T17:59:04.293Z,30.58
2023-04-17T18:01:30.714Z,30.80
2023-04-17T18:03:57.305Z,30.96
2023-04-17T18:06:24.448Z,31.19
2023-04-17T18:08:52.309Z,31.19
2023-04-17T18:11:18.842Z,31.27
2023-04-17T18:13:45.320Z,31.42
2023-04-17T18:16:11.760Z,31.54
2023-04-17T18:18:38.564Z,31.49
2023-04-17T18:21:06.403Z,31.63
2023-04-17T18:23:33.192Z,31.85
2023-04-17T18:26:00.459Z,31.72
2023-04-17T18:28:26.756Z,31.68
2023-04-17T18:30:53.083Z,31.78
2023-04-17T18:33:20.116Z,31.66
2023-04-17T18:35:46.655Z,31.53
2023-04-17T18:38:13.971Z,31.78
2023-04-17T18:40:40.330Z,31.43
2023-04-17T18:43:09.360Z,31.37
2023-04-17T18:45:35.927Z,31.27
2023-04-17T18:48:02.426Z,31.38
2023-04-17T18:50:29.798Z,31.52
2023-04-17T18:52:56.292Z,31.63
2023-04-17T18:55:22.600Z,31.81
2023-04-17T18:57:48.861Z,31.82
2023-04-17T19:00:15.362Z,31.83
2023-04-17T19:02:41.871Z,31.87
2023-04-17T19:05:08.458Z,31.93
2023-04-17T19:07:35.108Z,32.05
2023-04-17T19:10:01.341Z,32.18
2023-04-17T19:12:27.657Z,32.29
2023-04-17T19:14:56.660Z,32.42
2023-04-17T19:17:24.643Z,32.72
2023-04-17T19:19:50.965Z,32.94
2023-04-17T19:22:17.914Z,33.10
2023-04-17T19:24:46.030Z,33.21
2023-04-17T19:27:12.251Z,33.37
2023-04-17T19:29:38.621Z,33.59
2023-04-17T19:32:05.138Z,33.73
2023-04-17T19:34:31.981Z,33.86
2023-04-17T19:36:58.213Z,34.01
2023-04-17T19:39:25.923Z,34.15
2023-04-17T19:41:52.176Z,34.18
2023-04-17T19:44:18.609Z,34.27
2023-04-17T19:46:44.853Z,34.29
2023-04-17T19:49:11.431Z,34.30
2023-04-17T19:51:38.299Z,34.33
2023-04-17T19:54:04.534Z,34.36
2023-04-17T19:56:31.855Z,34.41
2023-04-17T19:59:01.223Z,34.41
2023-04-17T20:01:29.321Z,34.38
2023-04-17T20:03:55.662Z,34.52
2023-04-17T20:06:22.033Z,34.51
2023-04-17T20:08:49.242Z,34.64
2023-04-17T20:11:15.631Z,34.75
2023-04-17T20:13:42.488Z,34.82
2023-04-17T20:16:08.737Z,34.91
2023-04-17T20:18:36.717Z,35.06
2023-04-17T20:21:05.307Z,35.19
2023-04-17T20:23:31.891Z,35.27
2023-04-17T20:25:58.157Z,35.36
2023-04-17T20:28:24.431Z,35.44
2023-04-17T20:30:50.791Z,35.60
2023-04-17T20:33:17.388Z,35.50
2023-04-17T20:35:43.864Z,35.74
2023-04-17T20:38:10.387Z,35.94
2023-04-17T20:40:36.593Z,36.02
2023-04-17T20:43:03.235Z,36.15
2023-04-17T20:45:29.717Z,36.17
2023-04-17T20:47:57.235Z,36.33
2023-04-17T20:50:24.252Z,36.59
2023-04-17T20:52:50.454Z,36.72
2023-04-17T20:55:19.018Z,36.88
2023-04-17T20:57:45.468Z,37.14
2023-04-17T21:00:12.177Z,37.30
2023-04-17T21:02:38.469Z,37.50
2023-04-17T21:05:06.217Z,37.65
2023-04-17T21:07:32.774Z,37.96
2023-04-17T21:09:59.246Z,38.04
2023-04-17T21:12:25.493Z,38.17
2023-04-17T21:14:51.819Z,38.37
2023-04-17T21:17:18.046Z,38.40
2023-04-17T21:19:45.410Z,38.52
2023-04-17T21:22:12.681Z,38.61
2023-04-17T21:24:39.128Z,38.69
2023-04-17T21:27:05.640Z,38.77
2023-04-17T21:29:32.567Z,38.91
2023-04-17T21:31:59.218Z,39.08
2023-04-17T21:34:25.731Z,39.24
2023-04-17T21:36:52.757Z,39.27
2023-04-17T21:39:19.062Z,39.45
2023-04-17T21:41:45.504Z,39.62
2023-04-17T21:44:12.301Z,39.70
2023-04-17T21:46:38.844Z,39.78
2023-04-17T21:49:05.438Z,39.88
2023-04-17T21:51:31.641Z,39.91
2023-04-17T21:53:57.970Z,40.16
2023-04-17T21:56:24.324Z,40.22
2023-04-17T21:58:53.374Z,40.27
2023-04-17T22:01:19.794Z,40.28
2023-04-17T22:03:46.434Z,40.39
2023-04-17T22:06:12.792Z,40.42
2023-04-17T22:08:39.188Z,40.49
2023-04-17T22:11:05.373Z,40.61
2023-04-17T22:13:32.572Z,40.58
2023-04-17T22:15:58.725Z,40.70
2023-04-17T22:18:26.405Z,40.78
2023-04-17T22:20:52.600Z,40.88
2023-04-17T22:23:18.948Z,40.94
2023-04-17T22:25:45.166Z,41.13
2023-04-17T22:28:11.730Z,41.05
2023-04-17T22:30:37.947Z,41.23
2023-04-17T22:33:04.394Z,41.35
2023-04-17T22:35:30.614Z,41.38
2023-04-17T22:37:56.798Z,41.51
2023-04-17T22:40:22.996Z,41.68
2023-04-17T22:42:49.969Z,41.99
2023-04-17T22:45:16.466Z,41.88
2023-04-17T22:47:42.876Z,42.21
2023-04-17T22:50:10.169Z,42.22
2023-04-17T22:52:36.636Z,42.23
2023-04-17T22:55:03.532Z,42.33
2023-04-17T22:57:30.082Z,42.45
2023-04-17T22:59:56.566Z,42.52
2023-04-17T23:02:22.927Z,42.78
2023-04-17T23:04:49.175Z,43.03
2023-04-17T23:07:15.586Z,43.13
2023-04-17T23:09:41.779Z,43.15
2023-04-17T23:12:08.104Z,43.31
2023-04-17T23:14:35.547Z,43.28
2023-04-17T23:17:02.192Z,43.48
2023-04-17T23:19:28.522Z,43.75
2023-04-17T23:21:55.080Z,43.90
2023-04-17T23:24:21.357Z,44.09
2023-04-17T23:26:48.156Z,44.18
2023-04-17T23:29:14.330Z,44.41
2023-04-17T23:31:42.211Z,44.50
2023-04-17T23:36:36.215Z,44.82
2023-04-17T23:39:04.342Z,45.00
2023-04-17T23:41:33.937Z,45.07
2023-04-17T23:44:01.098Z,45.22
2023-04-17T23:46:28.175Z,45.33
2023-04-17T23:48:55.330Z,45.58
2023-04-17T23:51:23.108Z,45.73
2023-04-17T23:53:51.130Z,46.02
2023-04-17T23:56:21.457Z,46.06
2023-04-17T23:58:48.493Z,46.28
